Time;durP1;ratioP1;P1;durP2;ratioP2;P2;SDS_P1;SDS_P2;PMS_P1;PMS_P2;Temp;Humidity;BMP_temperature;BMP_pressure;BME280_temperature;BME280_humidity;BME280_pressure;Samples;Min_cycle;Max_cycle;Signal;HPM_P1;HPM_P2
2023/12/05 00:00:29;;;;;;;1014.77;908.67;;;2.60;99.90;;;;;;5095559;28;20445;-79
2023/12/05 00:02:56;;;;;;;999.00;894.80;;;2.60;99.90;;;;;;5095327;28;20528;-79
2023/12/05 00:05:23;;;;;;;994.00;890.60;;;2.60;99.90;;;;;;5095430;28;20940;-79
2023/12/05 00:07:51;;;;;;;998.40;893.80;;;2.70;99.90;;;;;;5095162;28;20958;-79
2023/12/05 00:10:18;;;;;;;988.30;884.10;;;2.70;99.90;;;;;;5095028;28;21022;-79
2023/12/05 00:12:44;;;;;;;1004.77;898.97;;;2.70;99.90;;;;;;5094651;28;20457;-79
2023/12/05 00:15:13;;;;;;;991.17;886.30;;;2.70;99.90;;;;;;5095028;28;20447;-79
2023/12/05 00:17:40;;;;;;;980.53;877.93;;;2.70;99.90;;;;;;5095027;28;20483;-79
2023/12/05 00:20:08;;;;;;;985.80;881.93;;;2.70;99.90;;;;;;5094577;28;20461;-79
2023/12/05 00:22:37;;;;;;;992.17;888.77;;;2.70;99.90;;;;;;5094699;28;20868;-78
2023/12/05 00:25:05;;;;;;;990.93;887.53;;;2.70;99.90;;;;;;5094863;28;20944;-80
2023/12/05 00:27:32;;;;;;;984.70;881.70;;;2.80;99.90;;;;;;5094268;28;20536;-79
2023/12/05 00:29:59;;;;;;;979.60;878.07;;;2.80;99.90;;;;;;5094820;28;20529;-79
2023/12/05 00:32:27;;;;;;;988.80;887.03;;;2.80;99.90;;;;;;5094499;28;20455;-82
2023/12/05 00:34:54;;;;;;;994.27;891.37;;;2.80;99.90;;;;;;5094726;28;20449;-82
2023/12/05 00:37:21;;;;;;;994.50;891.80;;;2.80;99.90;;;;;;5094429;28;20448;-80
2023/12/05 00:39:48;;;;;;;1013.73;911.57;;;2.90;99.90;;;;;;5094240;28;20490;-82
2023/12/05 00:42:15;;;;;;;971.27;869.63;;;2.90;99.90;;;;;;5094582;28;20535;-82
2023/12/05 00:44:42;;;;;;;1012.57;909.97;;;2.90;99.90;;;;;;5094393;28;21097;-81
2023/12/05 00:47:08;;;;;;;989.13;885.97;;;2.90;99.90;;;;;;5094233;28;20955;-82
2023/12/05 00:49:37;;;;;;;980.50;878.10;;;2.90;99.90;;;;;;5094360;28;20445;-81
2023/12/05 00:52:04;;;;;;;973.27;870.60;;;2.90;99.90;;;;;;5094266;28;20477;-81
2023/12/05 00:54:31;;;;;;;980.60;876.43;;;2.90;99.90;;;;;;5093983;28;20453;-82
2023/12/05 00:57:00;;;;;;;961.73;859.40;;;2.90;99.90;;;;;;5094129;28;20485;-83
2023/12/05 00:59:27;;;;;;;949.90;848.40;;;3.00;99.90;;;;;;5094214;28;20508;-83
2023/12/05 01:01:54;;;;;;;959.37;857.07;;;2.90;99.90;;;;;;5094005;28;20445;-84
2023/12/05 01:04:21;;;;;;;948.67;847.07;;;2.90;99.90;;;;;;5093945;28;20449;-83
2023/12/05 01:06:50;;;;;;;948.80;846.07;;;2.90;99.90;;;;;;5093699;28;20452;-84
2023/12/05 01:09:16;;;;;;;979.33;876.63;;;2.90;99.90;;;;;;5093057;28;20563;-85
2023/12/05 01:11:43;;;;;;;968.97;867.57;;;2.90;99.90;;;;;;5093693;28;20457;-83
2023/12/05 01:14:10;;;;;;;979.33;876.00;;;2.90;99.90;;;;;;5093629;28;20449;-83
2023/12/05 01:16:42;;;;;;;971.10;868.53;;;2.90;99.90;;;;;;5093597;28;20485;-83
2023/12/05 01:19:09;;;;;;;964.33;860.93;;;2.90;99.90;;;;;;5093566;28;20482;-82
2023/12/05 01:21:36;;;;;;;956.43;852.43;;;3.00;99.90;;;;;;5093179;28;20848;-82
2023/12/05 01:24:05;;;;;;;960.90;855.63;;;3.00;99.90;;;;;;5093622;28;20876;-83
2023/12/05 01:26:31;;;;;;;970.07;865.27;;;3.10;99.90;;;;;;5093556;28;20453;-83
2023/12/05 01:28:58;;;;;;;976.13;871.07;;;3.10;99.90;;;;;;5093589;28;20530;-82
2023/12/05 01:31:25;;;;;;;966.40;863.00;;;3.10;99.90;;;;;;5093124;28;20466;-83
2023/12/05 01:33:52;;;;;;;973.20;869.93;;;3.10;99.90;;;;;;5093484;28;20453;-83
2023/12/05 01:36:19;;;;;;;1047.97;941.07;;;3.10;99.90;;;;;;5093021;28;20460;-82
2023/12/05 01:38:46;;;;;;;990.07;885.60;;;3.20;99.90;;;;;;5093326;28;20480;-82
2023/12/05 01:41:14;;;;;;;1011.10;905.80;;;3.20;99.90;;;;;;5093118;28;20452;-81
2023/12/05 01:43:41;;;;;;;1005.10;899.30;;;3.20;99.90;;;;;;5093347;28;20532;-79
2023/12/05 01:46:08;;;;;;;1040.23;934.07;;;3.20;99.90;;;;;;5093081;28;20452;-80
2023/12/05 01:48:35;;;;;;;1057.50;950.00;;;3.20;99.90;;;;;;5093100;28;20445;-78
2023/12/05 01:51:03;;;;;;;987.40;880.80;;;3.20;99.90;;;;;;5092998;28;20455;-80
2023/12/05 01:53:31;;;;;;;969.30;863.33;;;3.20;99.90;;;;;;5093075;28;20510;-82
2023/12/05 01:56:00;;;;;;;969.53;864.60;;;3.20;99.90;;;;;;5093172;28;20536;-85
2023/12/05 01:58:29;;;;;;;1023.53;915.10;;;3.20;99.90;;;;;;5092596;28;20452;-84
2023/12/05 02:00:57;;;;;;;1025.50;918.20;;;3.20;99.90;;;;;;5092655;28;20899;-85
2023/12/05 02:03:24;;;;;;;1022.40;914.63;;;3.20;99.90;;;;;;5092878;28;20453;-84
2023/12/05 02:05:51;;;;;;;1063.73;955.43;;;3.20;99.90;;;;;;5092969;28;20532;-82
2023/12/05 02:08:20;;;;;;;1056.80;946.57;;;3.30;99.90;;;;;;5093066;28;20464;-84
2023/12/05 02:10:47;;;;;;;1041.73;932.20;;;3.30;99.90;;;;;;5092705;28;20455;-83
2023/12/05 02:13:14;;;;;;;997.87;890.47;;;3.30;99.90;;;;;;5092744;28;20451;-83
2023/12/05 02:15:43;;;;;;;1009.80;901.10;;;3.30;99.90;;;;;;5092496;28;20441;-83
2023/12/05 02:18:18;;;;;;;1018.53;908.67;;;3.40;99.90;;;;;;5092746;28;20445;-85
2023/12/05 02:20:50;;;;;;;1017.67;908.47;;;3.30;99.90;;;;;;5091607;28;20441;-85
2023/12/05 02:23:46;;;;;;;1004.83;895.57;;;3.40;99.90;;;;;;5092662;28;20531;-84
2023/12/05 02:26:24;;;;;;;992.20;883.60;;;3.40;99.90;;;;;;5092270;28;20451;-84
2023/12/05 02:28:52;;;;;;;1000.57;891.40;;;3.40;99.90;;;;;;5092485;28;20452;-86
2023/12/05 02:31:19;;;;;;;1007.70;897.30;;;3.40;99.90;;;;;;5092364;28;20545;-84
2023/12/05 02:33:46;;;;;;;1031.07;920.93;;;3.40;99.90;;;;;;5092199;28;20458;-85
2023/12/05 02:36:21;;;;;;;1048.93;938.97;;;3.40;99.90;;;;;;5092161;28;20442;-85
2023/12/05 02:38:58;;;;;;;1039.97;929.97;;;3.50;99.90;;;;;;5091971;28;20542;-85
2023/12/05 02:41:30;;;;;;;1035.00;925.03;;;3.40;99.90;;;;;;5092297;28;20451;-85
2023/12/05 02:44:06;;;;;;;1013.07;903.00;;;3.50;99.90;;;;;;5092566;28;20457;-85
2023/12/05 02:46:35;;;;;;;1008.27;899.53;;;3.50;99.90;;;;;;5092162;28;20452;-84
2023/12/05 02:49:04;;;;;;;1030.40;920.80;;;3.50;99.90;;;;;;5091961;28;20541;-84
2023/12/05 02:51:31;;;;;;;1028.13;919.20;;;3.50;99.90;;;;;;5091992;28;20872;-83
2023/12/05 02:54:01;;;;;;;1005.17;896.03;;;3.50;99.90;;;;;;5092166;28;20453;-83
2023/12/05 02:56:29;;;;;;;998.73;890.77;;;3.50;99.90;;;;;;5092017;28;20533;-83
2023/12/05 02:58:56;;;;;;;985.07;877.57;;;3.50;99.90;;;;;;5091838;28;20470;-82
2023/12/05 03:01:24;;;;;;;1010.47;902.87;;;3.50;99.90;;;;;;5091909;28;20456;-82
2023/12/05 03:03:51;;;;;;;1030.47;922.17;;;3.50;99.90;;;;;;5091828;28;20449;-82
2023/12/05 03:06:18;;;;;;;1027.97;920.10;;;3.50;99.90;;;;;;5091588;28;20455;-82
2023/12/05 03:08:45;;;;;;;1025.77;917.90;;;3.50;99.90;;;;;;5091961;28;20960;-82
2023/12/05 03:11:12;;;;;;;1024.60;916.93;;;3.60;99.90;;;;;;5091613;28;20518;-82
2023/12/05 03:13:40;;;;;;;1022.67;916.87;;;3.60;99.90;;;;;;5091758;28;20541;-81
2023/12/05 03:16:08;;;;;;;1031.27;923.73;;;3.60;99.90;;;;;;5091563;28;20960;-80
2023/12/05 03:18:36;;;;;;;1030.47;922.67;;;3.60;99.90;;;;;;5091825;28;20446;-81
2023/12/05 03:21:03;;;;;;;1014.67;907.93;;;3.60;99.90;;;;;;5091642;28;20834;-81
2023/12/05 03:23:31;;;;;;;1032.23;923.97;;;3.60;99.90;;;;;;5091733;28;20445;-81
2023/12/05 03:25:57;;;;;;;1025.60;919.60;;;3.60;99.90;;;;;;5091626;28;20969;-82
2023/12/05 03:28:24;;;;;;;1011.40;906.10;;;3.60;99.90;;;;;;5092060;28;20449;-82
2023/12/05 03:30:51;;;;;;;988.60;884.07;;;3.60;99.90;;;;;;5092599;28;20536;-82
2023/12/05 03:33:19;;;;;;;1008.30;904.10;;;3.60;99.90;;;;;;5095600;28;20460;-81
2023/12/05 03:35:47;;;;;;;984.50;880.90;;;3.60;99.90;;;;;;5095688;28;20477;-82
2023/12/05 03:38:14;;;;;;;1010.27;904.67;;;3.70;99.90;;;;;;5095695;28;20539;-83
2023/12/05 03:40:41;;;;;;;1001.50;897.07;;;3.70;99.90;;;;;;5095749;28;20473;-83
2023/12/05 03:43:08;;;;;;;982.90;878.40;;;3.70;99.90;;;;;;5095608;28;20451;-83
2023/12/05 03:45:34;;;;;;;1052.50;944.97;;;3.70;99.90;;;;;;5095554;28;20445;-83
2023/12/05 03:48:01;;;;;;;1001.20;895.23;;;3.70;99.90;;;;;;5095838;28;20443;-84
2023/12/05 03:50:28;;;;;;;1141.63;999.90;;;3.70;99.90;;;;;;5095554;28;20536;-83
2023/12/05 03:52:56;;;;;;;1067.20;960.40;;;3.70;99.90;;;;;;5095265;28;20488;-82
2023/12/05 03:55:23;;;;;;;1176.77;999.90;;;3.80;99.90;;;;;;5095589;28;20453;-82
2023/12/05 03:57:50;;;;;;;1016.87;908.67;;;3.70;99.90;;;;;;5095216;28;20539;-84
2023/12/05 04:00:18;;;;;;;1016.47;907.90;;;3.90;99.90;;;;;;5095405;28;20490;-83
2023/12/05 04:02:45;;;;;;;1040.13;930.43;;;3.80;99.90;;;;;;5095340;28;20821;-83
2023/12/05 04:05:12;;;;;;;1009.67;901.37;;;3.90;99.90;;;;;;5095286;28;20453;-83
2023/12/05 04:07:41;;;;;;;999.73;893.33;;;3.90;99.90;;;;;;5095191;28;20452;-84
2023/12/05 04:10:10;;;;;;;998.77;894.27;;;3.90;99.90;;;;;;5095278;28;20502;-84
2023/12/05 04:12:39;;;;;;;1015.87;909.50;;;3.90;99.90;;;;;;5094939;28;20539;-82
2023/12/05 04:15:07;;;;;;;1009.13;903.47;;;3.90;99.90;;;;;;5095237;28;20445;-85
2023/12/05 04:17:34;;;;;;;1040.60;931.97;;;3.90;99.90;;;;;;5094873;28;20457;-84
2023/12/05 04:20:01;;;;;;;1017.27;909.47;;;3.90;99.90;;;;;;5094863;28;20472;-86
2023/12/05 04:22:28;;;;;;;1034.07;924.67;;;3.90;99.90;;;;;;5094767;28;20811;-84
2023/12/05 04:24:55;;;;;;;1024.83;915.27;;;4.00;99.90;;;;;;5094932;28;20869;-85
2023/12/05 04:27:23;;;;;;;1023.13;915.00;;;4.00;99.90;;;;;;5094625;28;21028;-84
2023/12/05 04:29:50;;;;;;;1017.00;908.80;;;4.00;99.90;;;;;;5094820;28;20480;-84
2023/12/05 04:32:17;;;;;;;1051.57;941.50;;;4.00;99.90;;;;;;5094552;28;20451;-84
2023/12/05 04:34:44;;;;;;;1035.40;924.73;;;4.10;99.90;;;;;;5094430;28;20453;-84
2023/12/05 04:37:12;;;;;;;1019.63;909.47;;;4.10;99.90;;;;;;5094438;28;20502;-85
2023/12/05 04:39:39;;;;;;;1015.33;904.87;;;4.10;99.90;;;;;;5094279;28;20833;-85
2023/12/05 04:42:06;;;;;;;1022.97;912.57;;;4.10;99.90;;;;;;5093563;28;20536;-85
2023/12/05 04:44:34;;;;;;;1035.50;924.20;;;4.10;99.90;;;;;;5094607;28;20532;-85
2023/12/05 04:47:03;;;;;;;1045.10;931.90;;;4.20;99.90;;;;;;5110061;28;20536;-86
2023/12/05 04:49:30;;;;;;;1068.20;953.13;;;4.20;99.90;;;;;;5114528;28;20511;-86
2023/12/05 04:51:59;;;;;;;1072.87;955.83;;;4.20;99.90;;;;;;5114441;28;20487;-85
2023/12/05 04:54:25;;;;;;;1069.93;953.83;;;4.20;99.90;;;;;;5114894;28;20536;-86
2023/12/05 04:56:53;;;;;;;1162.03;999.90;;;4.20;99.90;;;;;;5114604;28;20531;-85
2023/12/05 04:59:19;;;;;;;1057.83;944.67;;;4.20;99.90;;;;;;5114502;28;20531;-86
2023/12/05 05:01:49;;;;;;;1055.97;942.77;;;4.20;99.90;;;;;;5114422;28;20453;-86
2023/12/05 05:04:17;;;;;;;1043.17;931.53;;;4.30;99.90;;;;;;5115186;28;20458;-86
2023/12/05 05:06:43;;;;;;;1045.37;933.23;;;4.20;99.90;;;;;;5114247;28;20516;-87
2023/12/05 05:09:11;;;;;;;1058.73;946.57;;;4.30;99.90;;;;;;5114470;28;20448;-85
2023/12/05 05:11:39;;;;;;;1090.27;976.53;;;4.30;99.90;;;;;;5114484;28;20542;-86
2023/12/05 05:14:07;;;;;;;1054.47;942.43;;;4.30;99.90;;;;;;5114281;28;20456;-86
2023/12/05 05:16:34;;;;;;;1060.23;947.67;;;4.30;99.90;;;;;;5114181;28;20471;-86
2023/12/05 05:19:02;;;;;;;1058.77;944.97;;;4.30;99.90;;;;;;5114009;28;20448;-87
2023/12/05 05:21:29;;;;;;;1036.90;925.00;;;4.40;99.90;;;;;;5113884;28;20571;-87
2023/12/05 05:23:56;;;;;;;981.20;872.93;;;4.40;99.90;;;;;;5114215;28;20447;-86
2023/12/05 05:26:22;;;;;;;1017.93;907.77;;;4.30;99.90;;;;;;5114188;28;20480;-86
2023/12/05 05:28:49;;;;;;;1016.60;906.93;;;4.40;99.90;;;;;;5114149;28;20539;-87
2023/12/05 05:31:16;;;;;;;1012.07;900.47;;;4.40;99.90;;;;;;5112828;28;20445;-87
2023/12/05 05:33:44;;;;;;;1017.77;903.83;;;4.40;99.90;;;;;;5113644;28;20840;-87
2023/12/05 05:36:15;;;;;;;1033.70;923.30;;;4.40;99.90;;;;;;5106723;28;20452;-87
2023/12/05 05:38:42;;;;;;;1030.97;921.17;;;4.40;99.90;;;;;;5093225;28;20451;-87
2023/12/05 05:41:11;;;;;;;1003.40;894.20;;;4.40;99.90;;;;;;5093141;28;20499;-87
2023/12/05 05:43:44;;;;;;;989.80;879.77;;;4.40;99.90;;;;;;5093799;28;20552;-87
2023/12/05 05:46:11;;;;;;;1008.73;896.60;;;4.50;99.90;;;;;;5092685;28;21041;-86
2023/12/05 05:48:38;;;;;;;1016.63;892.13;;;4.50;99.90;;;;;;5093058;28;20482;-87
2023/12/05 05:51:06;;;;;;;1025.50;913.17;;;4.50;99.90;;;;;;5112815;28;20447;-87
2023/12/05 05:53:34;;;;;;;1031.13;917.83;;;4.50;99.90;;;;;;5113306;28;20444;-87
2023/12/05 05:56:19;;;;;;;1012.30;900.20;;;4.50;99.90;;;;;;5113258;28;20440;-86
2023/12/05 06:01:27;;;;;;;1076.63;961.30;;;4.50;99.90;;;;;;5104226;28;20971;-86
2023/12/05 06:03:54;;;;;;;1015.87;903.00;;;4.60;99.90;;;;;;5113363;28;20878;-85
2023/12/05 06:06:21;;;;;;;1024.87;894.37;;;4.60;99.90;;;;;;5112979;28;20452;-85
2023/12/05 06:08:49;;;;;;;1021.50;873.97;;;4.60;99.90;;;;;;5097476;28;20471;-86
2023/12/05 06:11:17;;;;;;;1145.83;999.90;;;4.60;99.90;;;;;;5092283;28;20528;-85
2023/12/05 06:13:43;;;;;;;1030.07;895.27;;;4.60;99.90;;;;;;5092842;28;20539;-85
2023/12/05 06:16:11;;;;;;;1045.27;906.40;;;4.70;99.90;;;;;;5092360;28;20575;-85
2023/12/05 06:18:39;;;;;;;1031.77;905.00;;;4.70;99.90;;;;;;5092596;28;20468;-86
2023/12/05 06:21:07;;;;;;;1033.67;902.03;;;4.70;99.90;;;;;;5092340;28;20563;-85
2023/12/05 06:23:38;;;;;;;1034.07;911.40;;;4.70;99.90;;;;;;5103305;28;20479;-85
2023/12/05 06:26:07;;;;;;;1050.50;916.33;;;4.70;99.90;;;;;;5092675;28;20446;-85
2023/12/05 06:28:34;;;;;;;1049.67;915.20;;;4.70;99.90;;;;;;5092598;28;20492;-84
2023/12/05 06:31:01;;;;;;;1045.00;909.60;;;4.80;99.90;;;;;;5092118;28;20478;-85
2023/12/05 06:33:28;;;;;;;1095.77;978.77;;;4.70;99.90;;;;;;5101768;28;20953;-84
2023/12/05 06:35:54;;;;;;;1033.87;902.77;;;4.70;99.90;;;;;;5112516;28;20884;-84
2023/12/05 06:38:24;;;;;;;1031.07;867.67;;;4.80;99.90;;;;;;5112370;28;20475;-84
2023/12/05 06:40:54;;;;;;;1028.77;881.80;;;4.80;99.90;;;;;;5112578;28;20488;-83
2023/12/05 06:43:22;;;;;;;1044.73;885.30;;;4.80;99.90;;;;;;5112690;28;20535;-84
2023/12/05 06:45:50;;;;;;;1039.17;890.90;;;4.80;99.90;;;;;;5112417;28;20452;-84
2023/12/05 06:48:17;;;;;;;1097.43;980.43;;;4.80;99.90;;;;;;5112400;28;20444;-83
2023/12/05 06:50:46;;;;;;;1034.50;888.13;;;4.80;99.90;;;;;;5111405;28;20536;-82
2023/12/05 06:53:13;;;;;;;1027.53;889.57;;;4.90;99.90;;;;;;5112328;28;20485;-83
2023/12/05 06:55:40;;;;;;;1041.60;919.67;;;4.80;99.90;;;;;;5112098;28;20452;-84
2023/12/05 06:58:07;;;;;;;1033.20;918.80;;;4.90;99.90;;;;;;5112204;28;20539;-82
2023/12/05 07:00:35;;;;;;;1037.83;917.30;;;4.90;99.90;;;;;;5112237;28;20473;-82
2023/12/05 07:03:02;;;;;;;1032.83;900.20;;;4.90;99.90;;;;;;5112030;28;20531;-82
2023/12/05 07:05:31;;;;;;;1072.17;956.53;;;4.90;99.90;;;;;;5111387;28;20657;-81
2023/12/05 07:08:00;;;;;;;1049.33;933.63;;;4.90;99.90;;;;;;5112320;28;20526;-81
2023/12/05 07:10:27;;;;;;;1032.47;908.83;;;4.90;99.90;;;;;;5112056;28;20447;-83
2023/12/05 07:12:54;;;;;;;1056.57;940.87;;;4.90;99.90;;;;;;5111961;28;20456;-83
2023/12/05 07:15:21;;;;;;;1029.97;916.20;;;4.90;99.90;;;;;;5112205;28;20820;-83
2023/12/05 07:17:50;;;;;;;1018.17;905.60;;;4.90;99.90;;;;;;5111955;28;20472;-82
2023/12/05 07:20:17;;;;;;;998.77;871.73;;;4.90;99.90;;;;;;5111855;28;21063;-84
2023/12/05 07:22:44;;;;;;;1017.13;904.53;;;4.90;99.90;;;;;;5112052;28;20553;-83
2023/12/05 07:25:11;;;;;;;995.73;867.10;;;4.90;99.90;;;;;;5112259;28;20475;-83
2023/12/05 07:27:38;;;;;;;1001.00;863.57;;;4.90;99.90;;;;;;5111938;28;20480;-83
2023/12/05 07:30:07;;;;;;;1013.07;869.90;;;5.00;99.90;;;;;;5111898;28;20444;-83
2023/12/05 07:32:34;;;;;;;1003.63;862.27;;;4.90;99.90;;;;;;5111433;28;20448;-82
2023/12/05 07:35:03;;;;;;;992.33;848.27;;;5.00;99.90;;;;;;5112178;28;20895;-82
2023/12/05 07:37:29;;;;;;;1001.80;887.87;;;5.00;99.90;;;;;;5112087;28;20446;-82
2023/12/05 07:39:56;;;;;;;982.77;843.20;;;5.00;99.90;;;;;;5111786;28;20452;-82
2023/12/05 07:42:23;;;;;;;1017.80;907.10;;;5.00;99.90;;;;;;5111760;28;20448;-82
2023/12/05 07:44:50;;;;;;;993.37;866.57;;;5.00;99.90;;;;;;5111411;28;20449;-83
2023/12/05 07:47:17;;;;;;;980.23;838.83;;;5.00;99.90;;;;;;5111698;28;20566;-83
2023/12/05 07:49:45;;;;;;;983.57;845.67;;;5.00;99.90;;;;;;5111902;28;20883;-83
2023/12/05 07:52:14;;;;;;;983.73;844.47;;;5.10;99.90;;;;;;5106764;28;20543;-83
2023/12/05 07:54:40;;;;;;;972.17;815.20;;;5.10;99.90;;;;;;5091479;28;20451;-84
2023/12/05 07:57:07;;;;;;;962.17;826.40;;;5.10;99.90;;;;;;5091800;28;20948;-83
2023/12/05 07:59:34;;;;;;;965.87;826.50;;;5.10;99.90;;;;;;5091559;28;20882;-84
2023/12/05 08:02:01;;;;;;;973.87;828.53;;;5.10;99.90;;;;;;5091195;28;20509;-84
2023/12/05 08:04:28;;;;;;;973.17;823.13;;;5.20;99.90;;;;;;5091388;28;20511;-84
2023/12/05 08:06:55;;;;;;;974.37;849.77;;;5.20;99.90;;;;;;5090977;28;20532;-84
2023/12/05 08:09:23;;;;;;;1013.43;904.30;;;5.20;99.90;;;;;;5107525;28;20549;-85
2023/12/05 08:11:50;;;;;;;977.97;836.07;;;5.30;99.90;;;;;;5109707;28;20452;-84
2023/12/05 08:14:17;;;;;;;977.70;833.37;;;5.30;99.90;;;;;;5110182;28;20449;-84
2023/12/05 08:16:46;;;;;;;972.77;839.80;;;5.30;99.90;;;;;;5110664;28;20459;-84
2023/12/05 08:19:12;;;;;;;970.17;820.67;;;5.30;99.90;;;;;;5113798;28;20509;-84
2023/12/05 08:21:39;;;;;;;984.27;856.83;;;5.40;99.90;;;;;;5114184;28;21028;-84
2023/12/05 08:24:06;;;;;;;983.30;829.20;;;5.40;99.90;;;;;;5113210;28;20452;-84
2023/12/05 08:26:35;;;;;;;994.90;854.75;;;5.40;99.90;;;;;;5111729;28;20450;-83
2023/12/05 08:29:02;;;;;;;973.77;814.60;;;5.40;99.90;;;;;;5112144;28;20252;-84
2023/12/05 08:31:29;;;;;;;1036.55;891.53;;;5.40;99.90;;;;;;5111529;28;20501;-85
2023/12/05 08:33:56;;;;;;;952.07;829.77;;;5.50;99.90;;;;;;5112867;28;20208;-85
2023/12/05 08:36:27;;;;;;;953.20;845.10;;;5.50;99.90;;;;;;5113260;28;20948;-85
2023/12/05 08:38:59;;;;;;;942.87;793.83;;;5.60;99.90;;;;;;5114295;28;20447;-85
2023/12/05 08:41:26;;;;;;;960.47;831.33;;;5.60;99.90;;;;;;5114795;28;20488;-84
2023/12/05 08:43:54;;;;;;;958.57;840.70;;;5.50;99.90;;;;;;5114769;28;20456;-84
2023/12/05 08:46:21;;;;;;;971.70;813.80;;;5.60;99.90;;;;;;5114935;28;20448;-85
2023/12/05 08:48:48;;;;;;;974.37;858.37;;;5.60;99.90;;;;;;5114864;28;20538;-84
2023/12/05 08:51:15;;;;;;;958.13;807.57;;;5.70;99.90;;;;;;5114635;28;20529;-83
2023/12/05 08:53:41;;;;;;;955.13;820.70;;;5.70;99.90;;;;;;5114408;28;20454;-84
2023/12/05 08:56:09;;;;;;;982.03;874.90;;;5.70;99.90;;;;;;5114834;28;20447;-85
2023/12/05 08:58:37;;;;;;;953.87;828.60;;;5.80;99.90;;;;;;5114576;28;20881;-84
2023/12/05 09:01:05;;;;;;;954.57;843.97;;;5.80;99.90;;;;;;5114434;28;20560;-85
2023/12/05 09:03:32;;;;;;;952.93;847.33;;;5.80;99.90;;;;;;5114508;28;20456;-85
2023/12/05 09:05:59;;;;;;;956.57;834.77;;;5.90;99.90;;;;;;5114212;28;20453;-85
2023/12/05 09:08:26;;;;;;;958.97;839.17;;;5.90;99.90;;;;;;5114632;28;20552;-85
2023/12/05 09:10:57;;;;;;;962.00;825.80;;;6.00;99.90;;;;;;5114402;28;20499;-83
2023/12/05 09:13:23;;;;;;;953.17;837.77;;;6.00;99.90;;;;;;5114527;28;20532;-85
2023/12/05 09:15:50;;;;;;;944.33;837.30;;;6.00;99.90;;;;;;5114171;28;20449;-85
2023/12/05 09:18:20;;;;;;;951.23;841.10;;;6.10;99.90;;;;;;5114348;28;20532;-84
2023/12/05 09:20:48;;;;;;;958.77;852.97;;;6.10;99.90;;;;;;5113922;28;20446;-85
2023/12/05 09:23:15;;;;;;;935.03;815.20;;;6.20;99.90;;;;;;5114452;28;20446;-85
2023/12/05 09:25:42;;;;;;;938.07;802.87;;;6.20;99.90;;;;;;5114553;28;20453;-85
2023/12/05 09:28:09;;;;;;;939.50;809.97;;;6.20;99.90;;;;;;5113713;28;20452;-85
2023/12/05 09:30:36;;;;;;;942.63;817.37;;;6.20;99.90;;;;;;5114192;28;20475;-85
2023/12/05 09:33:04;;;;;;;950.10;845.60;;;6.20;99.90;;;;;;5113852;28;20866;-85
2023/12/05 09:35:32;;;;;;;933.07;826.40;;;6.20;99.90;;;;;;5113915;28;20459;-84
2023/12/05 09:37:59;;;;;;;932.20;810.00;;;6.30;99.90;;;;;;5114179;28;20450;-84
2023/12/05 09:40:31;;;;;;;926.23;816.90;;;6.30;99.90;;;;;;5114019;28;20461;-85
2023/12/05 09:43:02;;;;;;;935.30;829.60;;;6.30;99.90;;;;;;5113338;28;20482;-84
2023/12/05 09:45:34;;;;;;;935.97;832.37;;;6.30;99.90;;;;;;5113798;28;20455;-84
2023/12/05 09:48:05;;;;;;;930.20;826.47;;;6.30;99.90;;;;;;5113497;28;20541;-83
2023/12/05 09:50:35;;;;;;;934.67;821.70;;;6.40;99.90;;;;;;5113835;28;20459;-84
2023/12/05 09:53:03;;;;;;;930.87;815.90;;;6.40;99.90;;;;;;5113699;28;20446;-85
2023/12/05 09:55:30;;;;;;;935.27;832.00;;;6.50;99.90;;;;;;5113435;28;20816;-85
2023/12/05 09:57:58;;;;;;;923.83;813.97;;;6.50;99.90;;;;;;5113429;28;20452;-85
2023/12/05 10:00:25;;;;;;;921.57;811.40;;;6.50;99.90;;;;;;5113611;28;20492;-86
2023/12/05 10:02:54;;;;;;;918.93;807.10;;;6.60;99.90;;;;;;5113902;28;20478;-87
2023/12/05 10:05:21;;;;;;;915.17;809.40;;;6.60;99.90;;;;;;5114111;28;20452;-87
2023/12/05 10:07:49;;;;;;;910.33;807.27;;;6.60;99.90;;;;;;5114059;28;20441;-86
2023/12/05 10:10:19;;;;;;;924.43;823.47;;;6.60;99.90;;;;;;5113909;28;20480;-85
2023/12/05 10:12:49;;;;;;;920.17;818.10;;;6.70;99.90;;;;;;5113931;28;20449;-86
2023/12/05 10:15:18;;;;;;;908.03;807.23;;;6.70;99.90;;;;;;5114236;28;20960;-86
2023/12/05 10:17:47;;;;;;;922.00;821.05;;;6.80;99.90;;;;;;5112251;28;20451;-85
2023/12/05 10:20:14;;;;;;;893.13;800.83;;;6.80;99.90;;;;;;5114045;28;20291;-84
2023/12/05 10:22:41;;;;;;;917.97;824.80;;;6.80;99.90;;;;;;5113532;28;20532;-84
2023/12/05 10:25:11;;;;;;;929.27;835.90;;;6.90;99.90;;;;;;5113649;28;20448;-84
2023/12/05 10:27:38;;;;;;;948.70;856.10;;;6.90;99.90;;;;;;5113899;28;20463;-84
2023/12/05 10:30:06;;;;;;;919.70;827.87;;;7.00;99.90;;;;;;5113805;28;20538;-84
2023/12/05 10:32:33;;;;;;;910.33;819.37;;;7.00;99.90;;;;;;5113186;28;20532;-84
2023/12/05 10:35:01;;;;;;;922.13;832.43;;;7.00;99.90;;;;;;5113271;28;20947;-83
2023/12/05 10:37:30;;;;;;;914.87;825.47;;;7.00;99.90;;;;;;5113056;28;20562;-83
2023/12/05 10:39:59;;;;;;;933.90;844.60;;;7.00;99.90;;;;;;5112469;28;20455;-84
2023/12/05 10:42:28;;;;;;;901.87;814.50;;;6.90;99.90;;;;;;5113116;28;20829;-84
2023/12/05 10:44:55;;;;;;;895.53;808.47;;;7.00;99.90;;;;;;5113083;28;20539;-83
2023/12/05 10:47:25;;;;;;;887.67;801.67;;;7.00;99.90;;;;;;5113090;28;20876;-83
2023/12/05 10:49:51;;;;;;;874.33;788.40;;;7.00;99.90;;;;;;5112060;28;20455;-83
2023/12/05 10:52:20;;;;;;;876.63;790.13;;;7.00;99.90;;;;;;5112697;28;20887;-83
2023/12/05 10:54:56;;;;;;;876.57;790.27;;;7.00;99.90;;;;;;5112956;28;20451;-83
2023/12/05 10:57:33;;;;;;;875.57;790.00;;;7.00;99.90;;;;;;5113055;28;20452;-83
2023/12/05 11:00:00;;;;;;;872.03;788.43;;;7.10;99.90;;;;;;5112876;28;20951;-83
2023/12/05 11:02:27;;;;;;;887.63;802.33;;;7.10;99.90;;;;;;5112430;28;20499;-83
2023/12/05 11:04:55;;;;;;;887.40;803.03;;;7.10;99.90;;;;;;5113022;28;20927;-83
2023/12/05 11:07:22;;;;;;;897.20;813.23;;;7.10;99.90;;;;;;5112538;28;20459;-83
2023/12/05 11:09:49;;;;;;;885.47;802.70;;;7.20;99.90;;;;;;5113051;28;20444;-83
2023/12/05 11:12:18;;;;;;;880.23;797.67;;;7.20;99.90;;;;;;5112450;28;20532;-83
2023/12/05 11:14:49;;;;;;;884.57;802.17;;;7.20;99.90;;;;;;5112692;28;20931;-83
2023/12/05 11:17:20;;;;;;;870.03;787.53;;;7.30;99.90;;;;;;5112333;28;20538;-83
2023/12/05 11:20:07;;;;;;;873.40;790.30;;;7.30;99.90;;;;;;5112736;28;20518;-84
2023/12/05 11:22:45;;;;;;;864.10;782.80;;;7.30;99.90;;;;;;5112502;28;20487;-84
2023/12/05 11:25:33;;;;;;;863.27;781.70;;;7.30;99.90;;;;;;5113078;28;20429;-84
2023/12/05 11:28:16;;;;;;;857.07;777.33;;;7.30;99.90;;;;;;5111168;28;20498;-84
2023/12/05 11:30:57;;;;;;;857.80;778.27;;;7.30;99.90;;;;;;5112527;28;20449;-83
2023/12/05 11:33:42;;;;;;;858.70;781.93;;;7.20;99.90;;;;;;5112168;28;20448;-83
2023/12/05 11:36:24;;;;;;;869.27;794.00;;;7.20;99.90;;;;;;5112540;28;20480;-84
2023/12/05 11:38:51;;;;;;;877.00;802.20;;;7.20;99.90;;;;;;5112409;28;20475;-83
2023/12/05 11:41:20;;;;;;;902.67;828.60;;;7.20;99.90;;;;;;5111973;28;20448;-83
2023/12/05 11:44:21;;;;;;;886.70;812.37;;;7.20;99.90;;;;;;5112121;28;20447;-84
2023/12/05 11:46:49;;;;;;;898.43;823.43;;;7.20;99.90;;;;;;5111817;28;20448;-84
2023/12/05 11:49:37;;;;;;;889.20;815.90;;;7.20;99.90;;;;;;5112164;28;20939;-83
2023/12/05 11:52:10;;;;;;;901.40;827.70;;;7.20;99.90;;;;;;5104800;28;20531;-84
2023/12/05 11:54:37;;;;;;;923.87;848.70;;;7.20;99.90;;;;;;5116873;28;20927;-84
2023/12/05 11:57:14;;;;;;;915.70;839.83;;;7.20;99.90;;;;;;5117272;28;20531;-86
2023/12/05 11:59:45;;;;;;;925.07;847.67;;;7.20;99.90;;;;;;5117098;28;20542;-85
2023/12/05 12:02:19;;;;;;;927.23;848.57;;;7.20;99.90;;;;;;5116955;28;20528;-85
2023/12/05 12:04:46;;;;;;;933.60;854.33;;;7.20;99.90;;;;;;5116090;28;20964;-83
2023/12/05 12:07:14;;;;;;;905.20;826.13;;;7.20;99.90;;;;;;5115735;28;20448;-83
2023/12/05 12:09:41;;;;;;;888.50;810.43;;;7.20;99.90;;;;;;5116119;28;20452;-84
2023/12/05 12:12:09;;;;;;;904.07;824.80;;;7.20;99.90;;;;;;5116058;28;20447;-84
2023/12/05 12:14:39;;;;;;;956.47;876.17;;;7.20;99.90;;;;;;5116209;28;20497;-85
2023/12/05 12:17:06;;;;;;;927.47;846.27;;;7.10;99.90;;;;;;5116498;28;20445;-83
2023/12/05 12:19:38;;;;;;;919.53;838.17;;;7.10;99.90;;;;;;5115424;28;20529;-83
2023/12/05 12:22:08;;;;;;;901.43;819.97;;;7.10;99.90;;;;;;5115296;28;20499;-83